createdAt,value
2023-05-02T00:01:05.135Z,2.20
2023-05-02T00:03:07.606Z,2.17
2023-05-02T00:05:09.775Z,2.40
2023-05-02T00:07:11.864Z,2.30
2023-05-02T00:09:14.288Z,2.50
2023-05-02T00:11:15.993Z,2.10
2023-05-02T00:13:17.719Z,1.88
2023-05-02T00:15:19.396Z,2.35
2023-05-02T00:17:21.045Z,2.20
2023-05-02T00:19:22.836Z,2.20
2023-05-02T00:21:24.641Z,2.40
2023-05-02T00:23:26.344Z,2.35
2023-05-02T00:25:28.339Z,2.28
2023-05-02T00:27:31.875Z,2.17
2023-05-02T00:29:33.511Z,2.00
2023-05-02T00:31:35.844Z,2.00
2023-05-02T00:33:37.657Z,2.33
2023-05-02T00:35:39.384Z,2.17
2023-05-02T00:37:41.215Z,1.88
2023-05-02T00:39:42.988Z,2.10
2023-05-02T00:41:44.603Z,2.17
2023-05-02T00:43:46.365Z,1.80
2023-05-02T00:45:48.610Z,1.83
2023-05-02T00:47:50.781Z,2.08
2023-05-02T00:49:52.628Z,1.85
2023-05-02T00:51:55.058Z,2.03
2023-05-02T00:53:57.870Z,2.05
2023-05-02T00:55:59.757Z,2.00
2023-05-02T00:58:05.019Z,2.17
2023-05-02T01:00:07.473Z,2.00
2023-05-02T01:02:39.360Z,2.30
2023-05-02T01:05:14.850Z,1.90
2023-05-02T01:07:54.430Z,1.63
2023-05-02T01:10:39.090Z,2.00
2023-05-02T01:12:52.192Z,1.73
2023-05-02T01:14:55.641Z,1.70
2023-05-02T01:16:58.810Z,2.10
2023-05-02T01:19:05.182Z,1.95
2023-05-02T01:21:09.036Z,2.00
2023-05-02T01:23:34.450Z,1.80
2023-05-02T01:26:14.009Z,2.00
2023-05-02T01:28:29.441Z,2.20
2023-05-02T01:30:33.941Z,2.10
2023-05-02T01:32:38.758Z,1.60
2023-05-02T01:34:41.749Z,2.00
2023-05-02T01:36:45.426Z,2.20
2023-05-02T01:38:49.619Z,2.00
2023-05-02T01:40:52.400Z,1.88
2023-05-02T01:42:54.930Z,1.90
2023-05-02T01:44:57.757Z,1.90
2023-05-02T01:47:02.277Z,1.90
2023-05-02T01:49:06.998Z,1.98
2023-05-02T01:51:09.006Z,1.70
2023-05-02T01:53:13.815Z,1.70
2023-05-02T01:55:17.347Z,1.77
2023-05-02T01:57:19.271Z,1.98
2023-05-02T01:59:23.106Z,1.75
2023-05-02T02:01:27.483Z,1.88
2023-05-02T02:03:31.053Z,1.85
2023-05-02T02:05:34.737Z,1.92
2023-05-02T02:07:36.972Z,1.73
2023-05-02T02:09:39.118Z,2.10
2023-05-02T02:11:49.141Z,1.58
2023-05-02T02:14:00.755Z,1.90
2023-05-02T02:16:05.761Z,2.22
2023-05-02T02:18:14.743Z,1.95
2023-05-02T02:20:18.728Z,1.73
2023-05-02T02:22:21.403Z,2.03
2023-05-02T02:24:23.797Z,1.80
2023-05-02T02:26:25.631Z,1.77
2023-05-02T02:28:27.443Z,1.80
2023-05-02T02:30:29.105Z,2.08
2023-05-02T02:32:31.013Z,1.83
2023-05-02T02:34:33.007Z,1.98
2023-05-02T02:36:36.697Z,2.00
2023-05-02T02:39:02.728Z,1.70
2023-05-02T02:41:18.882Z,1.80
2023-05-02T02:43:32.678Z,1.98
2023-05-02T02:45:46.408Z,1.70
2023-05-02T02:47:54.278Z,1.90
2023-05-02T02:50:11.366Z,1.92
2023-05-02T02:52:38.732Z,1.90
2023-05-02T02:54:47.141Z,1.90
2023-05-02T02:56:53.510Z,1.80
2023-05-02T02:59:07.864Z,1.90
2023-05-02T03:01:17.081Z,2.00
2023-05-02T03:03:22.568Z,1.70
2023-05-02T03:05:25.363Z,2.10
2023-05-02T03:07:30.400Z,2.05
2023-05-02T03:09:45.589Z,1.70
2023-05-02T03:11:47.322Z,1.88
2023-05-02T03:13:49.405Z,2.05
2023-05-02T03:15:53.988Z,1.88
2023-05-02T03:17:55.913Z,1.80
2023-05-02T03:19:57.794Z,2.13
2023-05-02T03:21:59.704Z,1.65
2023-05-02T03:24:02.628Z,1.98
2023-05-02T03:26:04.414Z,1.90
2023-05-02T03:28:06.087Z,2.15
2023-05-02T03:30:08.331Z,1.63
2023-05-02T03:32:10.542Z,1.75
2023-05-02T03:34:12.346Z,1.90
2023-05-02T03:36:14.360Z,1.80
2023-05-02T03:38:16.091Z,1.67
2023-05-02T03:40:21.649Z,2.08
2023-05-02T03:42:23.346Z,1.80
2023-05-02T03:44:25.073Z,1.92
2023-05-02T03:46:26.710Z,1.77
2023-05-02T03:48:28.373Z,1.90
2023-05-02T03:50:30.066Z,1.92
2023-05-02T03:52:33.416Z,1.88
2023-05-02T03:54:35.449Z,1.98
2023-05-02T03:56:37.261Z,1.92
2023-05-02T03:58:38.976Z,1.90
2023-05-02T04:00:40.837Z,2.00
2023-05-02T04:02:42.524Z,1.92
2023-05-02T04:04:44.419Z,1.83
2023-05-02T04:06:46.509Z,1.77
2023-05-02T04:08:48.787Z,1.73
2023-05-02T04:10:52.625Z,1.58
2023-05-02T04:12:54.292Z,1.90
2023-05-02T04:14:56.065Z,2.05
2023-05-02T04:16:57.698Z,1.95
2023-05-02T04:18:59.686Z,1.98
2023-05-02T04:21:01.345Z,1.75
2023-05-02T04:23:03.012Z,2.10
2023-05-02T04:25:04.976Z,1.77
2023-05-02T04:27:06.639Z,2.10
2023-05-02T04:29:08.383Z,2.30
2023-05-02T04:31:10.855Z,1.98
2023-05-02T04:33:12.659Z,2.00
2023-05-02T04:35:15.435Z,1.83
2023-05-02T04:37:17.733Z,1.90
2023-05-02T04:39:19.405Z,1.63
2023-05-02T04:41:21.515Z,1.83
2023-05-02T04:43:24.592Z,1.75
2023-05-02T04:45:26.715Z,2.13
2023-05-02T04:47:28.350Z,2.03
2023-05-02T04:49:30.400Z,2.25
2023-05-02T04:51:32.686Z,1.92
2023-05-02T04:53:34.443Z,2.25
2023-05-02T04:55:36.183Z,2.05
2023-05-02T04:57:39.790Z,2.28
2023-05-02T04:59:41.421Z,2.22
2023-05-02T05:01:43.986Z,2.38
2023-05-02T05:03:45.827Z,2.30
2023-05-02T05:05:48.023Z,2.10
2023-05-02T05:07:49.811Z,2.08
2023-05-02T05:09:56.761Z,2.10
2023-05-02T05:11:58.467Z,1.88
2023-05-02T05:14:00.683Z,2.25
2023-05-02T05:16:02.919Z,2.20
2023-05-02T05:18:04.666Z,2.00
2023-05-02T05:20:08.335Z,2.53
2023-05-02T05:22:11.370Z,2.40
2023-05-02T05:24:12.986Z,2.15
2023-05-02T05:26:17.716Z,2.15
2023-05-02T05:28:19.653Z,1.90
2023-05-02T05:30:21.676Z,2.70
2023-05-02T05:32:24.232Z,1.70
2023-05-02T05:34:26.683Z,1.90
2023-05-02T05:36:28.363Z,2.58
2023-05-02T05:38:30.003Z,2.42
2023-05-02T05:40:31.600Z,1.90
2023-05-02T05:42:33.401Z,2.60
2023-05-02T05:44:35.464Z,1.90
2023-05-02T05:46:37.128Z,2.20
2023-05-02T05:48:38.886Z,2.00
2023-05-02T05:50:40.614Z,2.00
2023-05-02T05:52:42.409Z,2.10
2023-05-02T05:54:44.064Z,2.22
2023-05-02T05:56:46.265Z,2.33
2023-05-02T05:58:47.894Z,3.17
2023-05-02T06:00:50.578Z,2.47
2023-05-02T06:02:52.369Z,2.28
2023-05-02T06:04:54.107Z,2.22
2023-05-02T06:06:55.979Z,2.20
2023-05-02T06:08:57.986Z,2.10
2023-05-02T06:10:59.637Z,2.47
2023-05-02T06:13:01.444Z,2.38
2023-05-02T06:15:03.436Z,2.55
2023-05-02T06:17:05.115Z,2.47
2023-05-02T06:19:06.796Z,2.65
2023-05-02T06:21:08.439Z,2.90
2023-05-02T06:23:10.098Z,2.55
2023-05-02T06:25:11.820Z,2.85
2023-05-02T06:27:13.480Z,2.55
2023-05-02T06:29:15.150Z,2.38
2023-05-02T06:31:17.063Z,2.50
2023-05-02T06:33:18.821Z,2.50
2023-05-02T06:35:20.884Z,2.72
2023-05-02T06:37:22.632Z,2.55
2023-05-02T06:39:24.545Z,3.10
2023-05-02T06:41:26.307Z,2.80
2023-05-02T06:43:28.206Z,3.00
2023-05-02T06:45:29.845Z,3.03
2023-05-02T06:47:32.849Z,3.22
2023-05-02T06:49:34.572Z,2.90
2023-05-02T06:51:36.233Z,3.33
2023-05-02T06:53:37.891Z,3.00
2023-05-02T06:55:39.615Z,3.20
2023-05-02T06:57:41.549Z,2.85
2023-05-02T06:59:43.249Z,3.13
2023-05-02T07:01:45.068Z,3.40
2023-05-02T07:03:47.308Z,2.85
2023-05-02T07:05:48.994Z,3.00
2023-05-02T07:07:50.688Z,3.15
2023-05-02T07:09:52.495Z,2.90
2023-05-02T07:11:54.161Z,2.83
2023-05-02T07:13:55.972Z,2.70
2023-05-02T07:15:58.137Z,3.17
2023-05-02T07:17:59.817Z,3.28
2023-05-02T07:20:01.693Z,3.15
2023-05-02T07:22:03.592Z,3.40
2023-05-02T07:24:05.430Z,3.55
2023-05-02T07:26:07.315Z,3.08
2023-05-02T07:28:09.216Z,2.88
2023-05-02T07:30:11.415Z,3.17
2023-05-02T07:32:13.172Z,3.40
2023-05-02T07:34:14.882Z,3.00
2023-05-02T07:36:17.993Z,3.10
2023-05-02T07:38:19.631Z,3.42
2023-05-02T07:40:21.462Z,3.58
2023-05-02T07:42:23.088Z,3.75
2023-05-02T07:44:25.247Z,3.50
2023-05-02T07:46:26.933Z,3.20
2023-05-02T07:48:28.816Z,3.40
2023-05-02T07:50:30.517Z,3.05
2023-05-02T07:52:32.283Z,3.80
2023-05-02T07:54:34.252Z,3.55
2023-05-02T07:56:36.175Z,3.60
2023-05-02T07:58:38.007Z,3.20
2023-05-02T08:00:39.696Z,3.13
2023-05-02T08:02:42.715Z,3.92
2023-05-02T08:04:44.948Z,3.60
2023-05-02T08:06:46.731Z,3.55
2023-05-02T08:08:48.537Z,3.25
2023-05-02T08:10:51.345Z,3.88
2023-05-02T08:12:53.035Z,3.50
2023-05-02T08:14:54.903Z,3.40
2023-05-02T08:16:56.556Z,3.50
2023-05-02T08:18:58.203Z,3.38
2023-05-02T08:20:59.904Z,3.75
2023-05-02T08:23:01.556Z,3.58
2023-05-02T08:25:03.305Z,3.50
2023-05-02T08:27:04.956Z,3.72
2023-05-02T08:29:06.697Z,3.40
2023-05-02T08:31:08.477Z,3.63
2023-05-02T08:33:10.192Z,4.22
2023-05-02T08:35:11.880Z,4.15
2023-05-02T08:37:13.633Z,3.90
2023-05-02T08:39:16.966Z,3.90
2023-05-02T08:41:19.278Z,4.40
2023-05-02T08:43:21.222Z,4.28
2023-05-02T08:45:24.526Z,4.85
2023-05-02T08:47:29.773Z,4.32
2023-05-02T08:49:35.840Z,4.50
2023-05-02T08:51:39.444Z,4.40
2023-05-02T08:53:43.678Z,3.90
2023-05-02T08:55:46.552Z,4.65
2023-05-02T08:57:48.300Z,4.57
2023-05-02T08:59:49.952Z,4.50
2023-05-02T09:01:58.822Z,4.75
2023-05-02T09:04:00.617Z,4.40
2023-05-02T09:06:07.108Z,4.55
2023-05-02T09:08:09.386Z,4.00
2023-05-02T09:10:11.855Z,4.13
2023-05-02T09:12:14.278Z,4.35
2023-05-02T09:14:16.966Z,3.70
2023-05-02T09:16:25.185Z,3.50
2023-05-02T09:18:39.864Z,3.10
2023-05-02T09:20:41.638Z,2.70
2023-05-02T09:22:51.000Z,2.85
2023-05-02T09:24:57.077Z,2.55
2023-05-02T09:26:59.734Z,2.28
2023-05-02T09:29:04.383Z,2.60
2023-05-02T09:31:11.279Z,2.67
2023-05-02T09:33:26.261Z,2.70
2023-05-02T09:35:28.020Z,2.95
2023-05-02T09:37:36.610Z,2.55
2023-05-02T09:39:38.291Z,2.63
2023-05-02T09:41:41.777Z,2.08
2023-05-02T09:43:43.860Z,2.47
2023-05-02T09:45:56.980Z,2.70
2023-05-02T09:48:02.971Z,2.35
2023-05-02T09:50:06.324Z,2.20
2023-05-02T09:52:15.897Z,2.47
2023-05-02T09:54:38.953Z,2.78
2023-05-02T09:56:56.314Z,2.80
2023-05-02T09:59:14.749Z,3.20
2023-05-02T10:01:19.959Z,2.85
2023-05-02T10:03:24.563Z,2.60
2023-05-02T10:05:27.141Z,3.17
2023-05-02T10:07:29.328Z,2.92
2023-05-02T10:09:34.927Z,2.80
2023-05-02T10:11:44.389Z,2.95
2023-05-02T10:13:46.845Z,2.30
2023-05-02T10:15:55.833Z,2.90
2023-05-02T10:18:02.559Z,2.53
2023-05-02T10:20:06.425Z,3.00
2023-05-02T10:22:08.677Z,2.85
2023-05-02T10:24:12.027Z,2.70
2023-05-02T10:26:16.363Z,2.80
2023-05-02T10:28:18.513Z,2.63
2023-05-02T10:30:20.845Z,2.55
2023-05-02T10:32:24.375Z,2.60
2023-05-02T10:34:27.863Z,2.70
2023-05-02T10:36:32.206Z,2.60
2023-05-02T10:38:35.393Z,2.83
2023-05-02T10:40:38.654Z,2.58
2023-05-02T10:42:44.187Z,2.67
2023-05-02T10:44:46.800Z,2.88
2023-05-02T10:46:48.529Z,2.95
2023-05-02T10:49:08.585Z,2.50
2023-05-02T10:51:14.121Z,2.75
2023-05-02T10:53:39.519Z,3.00
2023-05-02T10:55:41.525Z,2.50
2023-05-02T10:58:03.382Z,2.80
2023-05-02T11:00:24.536Z,2.63
2023-05-02T11:05:04.569Z,2.67
2023-05-02T11:07:07.287Z,2.90
2023-05-02T11:09:18.569Z,2.47
2023-05-02T11:11:59.530Z,2.95
2023-05-02T11:14:01.178Z,2.55
2023-05-02T11:16:02.994Z,2.60
2023-05-02T11:18:12.702Z,2.30
2023-05-02T11:20:14.565Z,2.60
2023-05-02T11:22:19.338Z,2.40
2023-05-02T11:24:41.511Z,2.65
2023-05-02T11:26:43.185Z,2.72
2023-05-02T11:28:48.174Z,2.70
2023-05-02T11:30:50.998Z,2.88
2023-05-02T11:32:53.590Z,2.67
2023-05-02T11:34:56.025Z,2.95
2023-05-02T11:36:57.666Z,2.78
2023-05-02T11:39:01.057Z,3.00
2023-05-02T11:41:04.272Z,2.45
2023-05-02T11:43:16.889Z,2.60
2023-05-02T11:45:19.920Z,2.88
2023-05-02T11:47:22.279Z,2.97
2023-05-02T11:49:24.238Z,2.50
2023-05-02T11:51:26.651Z,2.42
2023-05-02T11:53:29.462Z,2.65
2023-05-02T11:55:31.220Z,2.63
2023-05-02T11:57:36.463Z,2.72
2023-05-02T11:59:54.818Z,2.50
2023-05-02T12:01:58.049Z,2.50
2023-05-02T12:04:07.828Z,2.42
2023-05-02T12:06:14.050Z,2.65
2023-05-02T12:08:20.579Z,2.85
2023-05-02T12:10:22.243Z,2.45
2023-05-02T12:12:24.480Z,2.50
2023-05-02T12:14:30.048Z,2.63
2023-05-02T12:16:32.219Z,2.70
2023-05-02T12:18:33.956Z,2.70
2023-05-02T12:20:38.500Z,2.58
2023-05-02T12:22:40.501Z,2.78
2023-05-02T12:24:43.455Z,2.55
2023-05-02T12:26:45.283Z,2.40
2023-05-02T12:28:51.580Z,2.60
2023-05-02T12:30:53.289Z,2.70
2023-05-02T12:32:59.977Z,2.97
2023-05-02T12:35:03.666Z,2.22
2023-05-02T12:37:06.674Z,2.40
2023-05-02T12:39:08.301Z,2.50
2023-05-02T12:41:10.054Z,1.90
2023-05-02T12:43:11.662Z,2.63
2023-05-02T12:45:19.412Z,2.40
2023-05-02T12:47:24.890Z,2.60
2023-05-02T12:49:26.901Z,2.55
2023-05-02T12:51:28.844Z,2.55
2023-05-02T12:53:41.145Z,2.30
2023-05-02T12:55:42.974Z,2.60
2023-05-02T12:57:44.837Z,2.92
2023-05-02T12:59:46.646Z,2.60
2023-05-02T13:01:48.360Z,2.90
2023-05-02T13:03:51.600Z,3.03
2023-05-02T13:05:56.158Z,2.70
2023-05-02T13:07:59.255Z,3.08
2023-05-02T13:10:01.321Z,2.60
2023-05-02T13:12:04.332Z,3.03
2023-05-02T13:14:06.161Z,2.72
2023-05-02T13:16:08.323Z,2.75
2023-05-02T13:18:10.206Z,2.70
2023-05-02T13:20:12.678Z,2.92
2023-05-02T13:22:14.323Z,2.90
2023-05-02T13:24:17.386Z,2.95
2023-05-02T13:26:19.156Z,3.05
2023-05-02T13:28:20.914Z,3.03
2023-05-02T13:30:22.562Z,2.63
2023-05-02T13:32:24.327Z,2.75
2023-05-02T13:34:26.093Z,2.90
2023-05-02T13:36:27.716Z,3.00
2023-05-02T13:38:29.357Z,2.80
2023-05-02T13:40:30.975Z,2.83
2023-05-02T13:42:32.654Z,3.10
2023-05-02T13:44:34.273Z,3.15
2023-05-02T13:46:37.893Z,3.30
2023-05-02T13:48:39.798Z,3.10
2023-05-02T13:50:41.661Z,3.13
2023-05-02T13:52:43.306Z,3.42
2023-05-02T13:54:44.942Z,3.42
2023-05-02T13:56:46.606Z,3.15
2023-05-02T13:58:48.212Z,3.47
2023-05-02T14:00:49.860Z,3.10
2023-05-02T14:02:51.627Z,3.15
2023-05-02T14:04:53.586Z,2.80
2023-05-02T14:06:55.361Z,3.17
2023-05-02T14:08:57.054Z,3.60
2023-05-02T14:10:58.758Z,3.38
2023-05-02T14:13:00.667Z,3.35
2023-05-02T14:15:02.331Z,3.10
2023-05-02T14:17:05.303Z,3.35
2023-05-02T14:19:06.960Z,3.45
2023-05-02T14:21:08.604Z,3.85
2023-05-02T14:23:10.392Z,3.75
2023-05-02T14:25:12.889Z,3.50
2023-05-02T14:27:18.156Z,3.58
2023-05-02T14:29:20.476Z,3.30
2023-05-02T14:31:22.174Z,3.05
2023-05-02T14:33:23.896Z,3.30
2023-05-02T14:35:25.724Z,3.63
2023-05-02T14:37:27.400Z,3.97
2023-05-02T14:39:29.122Z,3.60
2023-05-02T14:41:30.900Z,3.53
2023-05-02T14:43:32.666Z,3.53
2023-05-02T14:45:34.797Z,3.42
2023-05-02T14:47:36.732Z,3.40
2023-05-02T14:49:38.418Z,3.40
2023-05-02T14:51:40.180Z,3.33
2023-05-02T14:53:41.997Z,3.75
2023-05-02T14:55:43.776Z,3.97
2023-05-02T14:57:45.628Z,3.58
2023-05-02T14:59:47.307Z,3.60
2023-05-02T15:01:49.130Z,3.85
2023-05-02T15:04:05.903Z,3.72
2023-05-02T15:06:09.687Z,3.58
2023-05-02T15:08:11.411Z,3.55
2023-05-02T15:10:13.062Z,3.75
2023-05-02T15:12:14.675Z,3.35
2023-05-02T15:14:16.333Z,3.35
2023-05-02T15:16:18.061Z,3.30
2023-05-02T15:18:19.790Z,3.30
2023-05-02T15:20:22.036Z,3.47
2023-05-02T15:22:25.874Z,3.53
2023-05-02T15:24:27.829Z,3.33
2023-05-02T15:26:30.865Z,3.63
2023-05-02T15:28:32.531Z,3.50
2023-05-02T15:30:34.426Z,3.70
2023-05-02T15:32:36.211Z,3.55
2023-05-02T15:34:37.899Z,3.53
2023-05-02T15:36:40.687Z,3.38
2023-05-02T15:38:42.986Z,3.60
2023-05-02T15:40:44.660Z,3.75
2023-05-02T15:42:47.017Z,3.70
2023-05-02T15:44:48.750Z,3.50
2023-05-02T15:46:50.345Z,3.67
2023-05-02T15:48:52.262Z,3.40
2023-05-02T15:50:53.941Z,3.17
2023-05-02T15:52:55.675Z,3.42
2023-05-02T15:54:58.724Z,3.75
2023-05-02T15:57:00.769Z,3.35
2023-05-02T15:59:02.411Z,3.40
2023-05-02T16:01:04.448Z,3.42
2023-05-02T16:03:06.382Z,3.20
2023-05-02T16:05:08.318Z,3.42
2023-05-02T16:07:10.655Z,3.20
2023-05-02T16:09:12.951Z,3.22
2023-05-02T16:11:14.619Z,2.97
2023-05-02T16:13:16.349Z,3.50
2023-05-02T16:15:18.042Z,4.00
2023-05-02T16:17:20.955Z,4.25
2023-05-02T16:19:22.740Z,4.22
2023-05-02T16:21:25.658Z,3.80
2023-05-02T16:23:27.385Z,4.13
2023-05-02T16:25:29.482Z,3.60
2023-05-02T16:27:31.102Z,3.55
2023-05-02T16:29:32.943Z,3.75
2023-05-02T16:31:35.128Z,3.30
2023-05-02T16:33:38.282Z,3.95
2023-05-02T16:35:39.942Z,3.67
2023-05-02T16:37:41.936Z,3.08
2023-05-02T16:39:43.769Z,3.33
2023-05-02T16:41:45.436Z,3.20
2023-05-02T16:43:48.216Z,3.20
2023-05-02T16:46:02.659Z,3.42
2023-05-02T16:48:05.168Z,3.55
2023-05-02T16:50:07.655Z,3.33
2023-05-02T16:52:09.334Z,3.42
2023-05-02T16:54:11.276Z,3.30
2023-05-02T16:56:13.422Z,3.33
2023-05-02T16:58:15.444Z,2.85
2023-05-02T17:00:17.820Z,3.55
2023-05-02T17:02:20.913Z,3.00
2023-05-02T17:04:22.886Z,3.25
2023-05-02T17:06:24.604Z,3.05
2023-05-02T17:08:26.674Z,3.40
2023-05-02T17:10:28.445Z,2.95
2023-05-02T17:12:30.128Z,3.30
2023-05-02T17:14:32.439Z,3.50
2023-05-02T17:16:34.124Z,3.42
2023-05-02T17:18:35.929Z,3.17
2023-05-02T17:20:38.077Z,3.35
2023-05-02T17:22:41.413Z,4.05
2023-05-02T17:24:45.363Z,3.40
2023-05-02T17:26:47.431Z,3.55
2023-05-02T17:28:50.281Z,3.60
2023-05-02T17:30:54.630Z,3.53
2023-05-02T17:32:56.814Z,4.32
2023-05-02T17:34:58.999Z,3.50
2023-05-02T17:37:00.680Z,3.65
2023-05-02T17:39:03.863Z,3.67
2023-05-02T17:41:05.870Z,3.30
2023-05-02T17:43:07.623Z,3.42
2023-05-02T17:45:09.993Z,3.38
2023-05-02T17:47:12.082Z,3.03
2023-05-02T17:49:13.916Z,3.78
2023-05-02T17:51:16.014Z,3.22
2023-05-02T17:53:17.673Z,3.42
2023-05-02T17:55:19.603Z,3.60
2023-05-02T17:57:21.418Z,3.38
2023-05-02T17:59:23.424Z,3.35
2023-05-02T18:01:25.112Z,3.08
2023-05-02T18:03:26.982Z,3.33
2023-05-02T18:05:29.066Z,3.53
2023-05-02T18:07:31.500Z,3.22
2023-05-02T18:09:33.149Z,3.10
2023-05-02T18:11:35.132Z,4.03
2023-05-02T18:13:39.544Z,3.40
2023-05-02T18:15:41.407Z,3.40
2023-05-02T18:17:43.114Z,3.00
2023-05-02T18:19:44.954Z,3.25
2023-05-02T18:21:46.558Z,3.50
2023-05-02T18:23:48.549Z,3.30
2023-05-02T18:25:50.262Z,3.20
2023-05-02T18:27:51.912Z,3.20
2023-05-02T18:29:54.434Z,3.28
2023-05-02T18:31:56.228Z,3.10
2023-05-02T18:33:58.166Z,3.10
2023-05-02T18:36:00.367Z,2.92
2023-05-02T18:38:02.456Z,2.90
2023-05-02T18:40:04.848Z,3.13
2023-05-02T18:42:08.173Z,3.25
2023-05-02T18:44:11.391Z,3.00
2023-05-02T18:46:13.188Z,3.22
2023-05-02T18:48:15.040Z,2.70
2023-05-02T18:50:16.986Z,2.67
2023-05-02T18:52:18.994Z,3.08
2023-05-02T18:54:22.781Z,3.25
2023-05-02T18:56:25.343Z,3.33
2023-05-02T18:58:27.012Z,3.58
2023-05-02T19:00:31.169Z,3.22
2023-05-02T19:02:32.843Z,3.33
2023-05-02T19:04:34.615Z,2.72
2023-05-02T19:06:36.609Z,2.90
2023-05-02T19:08:40.156Z,2.85
2023-05-02T19:10:41.836Z,3.53
2023-05-02T19:12:43.931Z,2.80
2023-05-02T19:14:47.712Z,3.10
2023-05-02T19:16:49.751Z,3.28
2023-05-02T19:18:54.651Z,3.10
2023-05-02T19:20:57.156Z,2.92
2023-05-02T19:23:17.690Z,3.08
2023-05-02T19:25:21.162Z,2.85
2023-05-02T19:27:22.828Z,3.47
2023-05-02T19:29:24.499Z,3.53
2023-05-02T19:31:26.306Z,3.53
2023-05-02T19:33:28.507Z,3.42
2023-05-02T19:35:33.933Z,3.00
2023-05-02T19:37:35.632Z,3.05
2023-05-02T19:39:37.294Z,3.22
2023-05-02T19:41:40.082Z,2.88
2023-05-02T19:43:41.749Z,3.20
2023-05-02T19:45:43.443Z,2.80
2023-05-02T19:47:45.551Z,3.53
2023-05-02T19:49:47.362Z,3.15
2023-05-02T19:51:49.391Z,2.95
2023-05-02T19:53:52.846Z,3.25
2023-05-02T19:55:54.600Z,3.08
2023-05-02T19:57:56.304Z,3.75
2023-05-02T19:59:57.996Z,2.78
2023-05-02T20:01:59.697Z,2.83
2023-05-02T20:04:01.398Z,3.05
2023-05-02T20:06:03.270Z,3.50
2023-05-02T20:08:05.017Z,3.17
2023-05-02T20:10:07.753Z,3.28
2023-05-02T20:12:09.524Z,3.20
2023-05-02T20:14:11.255Z,3.30
2023-05-02T20:16:13.994Z,3.10
2023-05-02T20:18:15.788Z,2.92
2023-05-02T20:20:17.716Z,3.05
2023-05-02T20:22:19.407Z,2.65
2023-05-02T20:24:21.811Z,3.25
2023-05-02T20:26:23.517Z,2.83
2023-05-02T20:28:25.791Z,2.85
2023-05-02T20:30:27.645Z,3.42
2023-05-02T20:32:29.335Z,3.28
2023-05-02T20:34:33.879Z,2.78
2023-05-02T20:36:35.722Z,2.90
2023-05-02T20:38:42.094Z,3.15
2023-05-02T20:40:43.898Z,2.75
2023-05-02T20:42:47.220Z,2.88
2023-05-02T20:45:02.569Z,2.80
2023-05-02T20:47:04.212Z,2.85
2023-05-02T20:49:05.824Z,2.88
2023-05-02T20:51:08.438Z,2.80
2023-05-02T20:53:10.273Z,2.83
2023-05-02T20:55:12.051Z,2.90
2023-05-02T20:57:14.886Z,3.00
2023-05-02T20:59:16.549Z,2.75
2023-05-02T21:01:18.200Z,2.95
2023-05-02T21:03:20.386Z,3.00
2023-05-02T21:05:22.111Z,3.10
2023-05-02T21:07:23.814Z,3.22
2023-05-02T21:09:25.537Z,2.80
2023-05-02T21:11:27.176Z,3.42
2023-05-02T21:13:28.842Z,3.17
2023-05-02T21:15:35.739Z,2.58
2023-05-02T21:17:39.290Z,2.88
2023-05-02T21:19:41.697Z,3.25
2023-05-02T21:21:43.413Z,2.75
2023-05-02T21:23:45.177Z,2.67
2023-05-02T21:25:47.048Z,3.55
2023-05-02T21:27:48.746Z,3.00
2023-05-02T21:29:50.767Z,3.05
2023-05-02T21:31:54.572Z,2.72
2023-05-02T21:33:56.475Z,2.85
2023-05-02T21:35:58.923Z,2.70
2023-05-02T21:38:00.673Z,2.88
2023-05-02T21:40:02.746Z,3.13
2023-05-02T21:42:05.002Z,3.08
2023-05-02T21:44:06.658Z,2.70
2023-05-02T21:46:13.324Z,3.05
2023-05-02T21:48:16.394Z,2.90
2023-05-02T21:50:18.272Z,3.10
2023-05-02T21:52:19.889Z,2.78
2023-05-02T21:54:21.751Z,2.97
2023-05-02T21:56:23.414Z,2.97
2023-05-02T21:58:25.045Z,2.83
2023-05-02T22:00:26.779Z,2.95
2023-05-02T22:02:28.474Z,2.85
2023-05-02T22:04:30.091Z,2.85
2023-05-02T22:06:32.656Z,3.20
2023-05-02T22:08:34.553Z,2.65
2023-05-02T22:10:38.545Z,3.10
2023-05-02T22:12:40.472Z,2.88
2023-05-02T22:14:45.655Z,2.85
2023-05-02T22:16:47.773Z,2.63
2023-05-02T22:18:49.608Z,3.00
2023-05-02T22:20:51.378Z,2.50
2023-05-02T22:22:53.072Z,2.63
2023-05-02T22:24:54.760Z,2.60
2023-05-02T22:26:56.643Z,2.38
2023-05-02T22:28:58.244Z,2.83
2023-05-02T22:30:59.978Z,2.72
2023-05-02T22:33:02.857Z,2.92
2023-05-02T22:35:04.783Z,2.92
2023-05-02T22:37:06.464Z,2.92
2023-05-02T22:39:12.853Z,2.50
2023-05-02T22:41:14.531Z,3.00
2023-05-02T22:43:17.381Z,2.90
2023-05-02T22:45:19.140Z,2.70
2023-05-02T22:47:23.910Z,2.67
2023-05-02T22:49:25.815Z,2.85
2023-05-02T22:51:27.730Z,2.63
2023-05-02T22:53:30.183Z,2.67
2023-05-02T22:55:31.942Z,2.67
2023-05-02T22:57:33.698Z,2.70
2023-05-02T22:59:35.357Z,2.38
2023-05-02T23:01:37.130Z,3.10
2023-05-02T23:03:39.094Z,2.95
2023-05-02T23:05:40.844Z,2.65
2023-05-02T23:07:42.580Z,2.78
2023-05-02T23:09:44.275Z,2.47
2023-05-02T23:11:46.185Z,2.95
2023-05-02T23:13:47.967Z,2.92
2023-05-02T23:15:54.463Z,2.40
2023-05-02T23:17:56.204Z,2.97
2023-05-02T23:19:58.476Z,2.42
2023-05-02T23:22:00.407Z,2.70
2023-05-02T23:24:02.150Z,2.53
2023-05-02T23:26:03.948Z,2.30
2023-05-02T23:28:05.969Z,2.53
2023-05-02T23:30:08.286Z,2.90
2023-05-02T23:32:10.145Z,2.78
2023-05-02T23:34:12.314Z,2.60
2023-05-02T23:36:14.084Z,2.70
2023-05-02T23:38:16.080Z,2.42
2023-05-02T23:40:17.893Z,2.72
2023-05-02T23:42:19.711Z,2.72
2023-05-02T23:44:21.286Z,2.53
2023-05-02T23:46:23.012Z,2.67
2023-05-02T23:48:24.717Z,2.60
2023-05-02T23:50:26.633Z,2.38
2023-05-02T23:52:28.300Z,2.70
2023-05-02T23:54:31.938Z,2.60
2023-05-02T23:56:34.945Z,2.55
2023-05-02T23:58:36.601Z,2.80
